createdAt,value
2022-11-24T00:01:12.335Z,98514.56
2022-11-24T00:03:45.794Z,98514.88
2022-11-24T00:06:17.711Z,98513.22
2022-11-24T00:08:49.322Z,98514.22
2022-11-24T00:11:28.074Z,98510.31
2022-11-24T00:13:59.745Z,98509.63
2022-11-24T00:16:33.607Z,98513.22
2022-11-24T00:19:09.328Z,98515.03
2022-11-24T00:21:41.308Z,98522.06
2022-11-24T00:24:12.979Z,98524.84
2022-11-24T00:26:45.226Z,98531.06
2022-11-24T00:29:16.845Z,98523.81
2022-11-24T00:31:48.450Z,98521.19
2022-11-24T00:34:20.029Z,98526.25
2022-11-24T00:36:51.580Z,98526.78
2022-11-24T00:39:23.463Z,98529.09
2022-11-24T00:41:57.357Z,98525.97
2022-11-24T00:44:29.002Z,98520.03
2022-11-24T00:47:00.654Z,98513.97
2022-11-24T00:49:32.708Z,98526.25
2022-11-24T00:52:04.642Z,98535.28
2022-11-24T00:54:36.297Z,98533.19
2022-11-24T00:57:10.274Z,98536.31
2022-11-24T00:59:41.894Z,98535.81
2022-11-24T01:02:13.579Z,98534.03
2022-11-24T01:04:45.220Z,98534.66
2022-11-24T01:07:17.095Z,98537.13
2022-11-24T01:09:51.692Z,98533.38
2022-11-24T01:12:23.381Z,98534.22
2022-11-24T01:14:55.104Z,98540.09
2022-11-24T01:17:27.371Z,98542.88
2022-11-24T01:19:59.013Z,98537.94
2022-11-24T01:22:30.842Z,98544.16
2022-11-24T01:25:02.393Z,98547.63
2022-11-24T01:27:33.971Z,98550.38
2022-11-24T01:30:07.113Z,98556.94
2022-11-24T01:32:38.794Z,98552.53
2022-11-24T01:35:10.606Z,98545.63
2022-11-24T01:37:42.205Z,98550.72
2022-11-24T01:40:13.828Z,98554.00
2022-11-24T01:42:52.742Z,98567.47
2022-11-24T01:45:40.889Z,98578.78
2022-11-24T01:48:27.288Z,98570.22
2022-11-24T01:51:12.551Z,98577.41
2022-11-24T01:53:48.576Z,98576.94
2022-11-24T01:56:20.478Z,98577.41
2022-11-24T01:58:56.787Z,98576.59
2022-11-24T02:01:29.370Z,98579.84
2022-11-24T02:04:03.310Z,98576.59
2022-11-24T02:06:37.000Z,98574.91
2022-11-24T02:09:18.032Z,98589.13
2022-11-24T02:11:49.849Z,98578.97
2022-11-24T02:14:23.641Z,98585.19
2022-11-24T02:16:55.383Z,98585.34
2022-11-24T02:19:52.989Z,98593.06
2022-11-24T02:22:42.873Z,98587.66
2022-11-24T02:25:30.809Z,98587.81
2022-11-24T02:28:07.264Z,98595.69
2022-11-24T02:30:40.799Z,98594.00
2022-11-24T02:33:13.011Z,98590.22
2022-11-24T02:35:46.660Z,98586.41
2022-11-24T02:38:18.325Z,98583.78
2022-11-24T02:40:49.913Z,98594.78
2022-11-24T02:43:23.693Z,98589.69
2022-11-24T02:45:55.300Z,98593.28
2022-11-24T02:48:28.484Z,98596.44
2022-11-24T02:51:00.186Z,98598.72
2022-11-24T02:53:31.832Z,98594.81
2022-11-24T02:56:03.729Z,98590.72
2022-11-24T02:58:35.689Z,98596.44
2022-11-24T03:01:07.305Z,98593.38
2022-11-24T03:03:39.139Z,98587.47
2022-11-24T03:06:10.677Z,98588.94
2022-11-24T03:08:42.253Z,98590.59
2022-11-24T03:11:13.807Z,98596.16
2022-11-24T03:13:47.731Z,98596.50
2022-11-24T03:16:19.373Z,98604.84
2022-11-24T03:18:52.295Z,98603.38
2022-11-24T03:21:23.862Z,98602.88
2022-11-24T03:23:57.757Z,98608.47
2022-11-24T03:26:29.624Z,98605.34
2022-11-24T03:29:03.613Z,98599.13
2022-11-24T03:31:35.684Z,98608.28
2022-11-24T03:34:07.281Z,98608.09
2022-11-24T03:36:38.900Z,98613.31
2022-11-24T03:39:10.530Z,98608.22
2022-11-24T03:41:45.579Z,98615.28
2022-11-24T03:44:18.009Z,98612.78
2022-11-24T03:46:50.968Z,98620.31
2022-11-24T03:49:22.665Z,98624.72
2022-11-24T03:51:54.243Z,98618.50
2022-11-24T03:54:25.833Z,98604.28
2022-11-24T03:56:57.351Z,98612.31
2022-11-24T03:59:28.950Z,98620.41
2022-11-24T04:02:00.625Z,98619.94
2022-11-24T04:04:32.453Z,98622.09
2022-11-24T04:07:04.659Z,98623.91
2022-11-24T04:09:36.253Z,98608.84
2022-11-24T04:12:27.627Z,98618.38
2022-11-24T04:14:59.192Z,98617.53
2022-11-24T04:17:30.733Z,98608.72
2022-11-24T04:20:02.387Z,98614.59
2022-11-24T04:22:34.240Z,98621.81
2022-11-24T04:25:06.617Z,98630.16
2022-11-24T04:27:39.041Z,98627.25
2022-11-24T04:30:10.822Z,98639.66
2022-11-24T04:32:42.363Z,98639.81
2022-11-24T04:35:14.302Z,98635.41
2022-11-24T04:37:46.060Z,98645.06
2022-11-24T04:40:17.758Z,98645.59
2022-11-24T04:42:56.288Z,98649.13
2022-11-24T04:45:27.911Z,98651.25
2022-11-24T04:47:59.444Z,98648.47
2022-11-24T04:50:31.041Z,98662.84
2022-11-24T04:53:02.625Z,98663.50
2022-11-24T04:55:34.225Z,98659.03
2022-11-24T04:58:08.913Z,98652.97
2022-11-24T05:00:41.181Z,98649.38
2022-11-24T05:03:12.773Z,98657.56
2022-11-24T05:05:44.342Z,98661.66
2022-11-24T05:08:15.971Z,98661.00
2022-11-24T05:10:47.524Z,98661.09
2022-11-24T05:13:19.093Z,98667.47
2022-11-24T05:15:53.938Z,98676.44
2022-11-24T05:18:25.743Z,98678.59
2022-11-24T05:20:58.946Z,98689.25
2022-11-24T05:23:31.096Z,98684.16
2022-11-24T05:26:03.400Z,98691.88
2022-11-24T05:28:34.985Z,98689.25
2022-11-24T05:31:06.657Z,98690.72
2022-11-24T05:33:38.324Z,98688.94
2022-11-24T05:36:30.144Z,98688.25
2022-11-24T05:39:01.771Z,98694.19
2022-11-24T05:41:33.373Z,98702.16
2022-11-24T05:44:06.484Z,98701.53
2022-11-24T05:46:39.221Z,98701.88
2022-11-24T05:49:10.948Z,98701.44
2022-11-24T05:51:42.568Z,98704.72
2022-11-24T05:54:14.184Z,98711.06
2022-11-24T05:56:45.772Z,98708.59
2022-11-24T05:59:17.349Z,98711.91
2022-11-24T06:01:49.076Z,98718.94
2022-11-24T06:04:20.741Z,98733.13
2022-11-24T06:06:52.316Z,98732.75
2022-11-24T06:09:23.914Z,98729.91
2022-11-24T06:11:56.064Z,98735.84
2022-11-24T06:14:27.971Z,98740.78
2022-11-24T06:16:59.864Z,98736.38
2022-11-24T06:19:31.568Z,98731.44
2022-11-24T06:22:03.394Z,98744.75
2022-11-24T06:24:35.143Z,98740.84
2022-11-24T06:27:07.731Z,98744.97
2022-11-24T06:29:39.449Z,98746.44
2022-11-24T06:32:11.193Z,98750.50
2022-11-24T06:34:43.912Z,98761.56
2022-11-24T06:37:15.592Z,98756.31
2022-11-24T06:39:47.250Z,98772.41
2022-11-24T06:42:19.093Z,98777.88
2022-11-24T06:44:51.198Z,98779.88
2022-11-24T06:47:22.826Z,98784.47
2022-11-24T06:49:54.492Z,98777.44
2022-11-24T06:52:29.147Z,98784.69
2022-11-24T06:55:03.646Z,98784.09
2022-11-24T06:57:35.424Z,98781.03
2022-11-24T07:00:07.979Z,98787.22
2022-11-24T07:02:45.516Z,98791.66
2022-11-24T07:05:17.565Z,98794.63
2022-11-24T07:07:52.293Z,98793.81
2022-11-24T07:10:23.961Z,98799.03
2022-11-24T07:12:55.606Z,98793.94
2022-11-24T07:15:28.664Z,98797.41
2022-11-24T07:18:00.419Z,98803.09
2022-11-24T07:20:32.079Z,98801.44
2022-11-24T07:23:03.766Z,98807.50
2022-11-24T07:25:35.478Z,98812.16
2022-11-24T07:28:07.054Z,98815.13
2022-11-24T07:30:38.666Z,98813.88
2022-11-24T07:33:10.359Z,98814.53
2022-11-24T07:35:41.980Z,98814.38
2022-11-24T07:38:13.615Z,98818.50
2022-11-24T07:40:45.226Z,98820.81
2022-11-24T07:43:20.191Z,98824.78
2022-11-24T07:45:53.764Z,98823.28
2022-11-24T07:48:25.401Z,98822.84
2022-11-24T07:50:59.479Z,98828.22
2022-11-24T07:53:35.091Z,98825.47
2022-11-24T07:56:07.368Z,98830.25
2022-11-24T07:58:39.059Z,98823.66
2022-11-24T08:01:18.110Z,98825.16
2022-11-24T08:03:49.940Z,98825.16
2022-11-24T08:06:25.482Z,98826.78
2022-11-24T08:08:58.805Z,98832.84
2022-11-24T08:11:31.585Z,98839.91
2022-11-24T08:14:03.248Z,98831.38
2022-11-24T08:16:34.845Z,98839.59
2022-11-24T08:19:06.618Z,98831.25
2022-11-24T08:21:38.466Z,98834.66
2022-11-24T08:24:10.262Z,98837.69
2022-11-24T08:26:42.219Z,98833.44
2022-11-24T08:29:13.807Z,98833.09
2022-11-24T08:31:45.378Z,98841.81
2022-11-24T08:34:16.975Z,98850.72
2022-11-24T08:36:48.549Z,98850.56
2022-11-24T08:39:20.539Z,98858.56
2022-11-24T08:41:52.325Z,98854.53
2022-11-24T08:44:23.953Z,98863.22
2022-11-24T08:46:55.977Z,98857.13
2022-11-24T08:49:27.829Z,98860.59
2022-11-24T08:51:59.539Z,98864.53
2022-11-24T08:54:31.217Z,98861.31
2022-11-24T08:57:02.832Z,98867.75
2022-11-24T08:59:34.465Z,98866.09
2022-11-24T09:02:10.667Z,98869.53
2022-11-24T09:04:44.437Z,98868.56
2022-11-24T09:07:16.173Z,98870.50
2022-11-24T09:09:49.085Z,98867.44
2022-11-24T09:12:20.786Z,98867.13
2022-11-24T09:14:52.339Z,98864.88
2022-11-24T09:17:23.924Z,98865.41
2022-11-24T09:19:55.483Z,98872.66
2022-11-24T09:22:27.319Z,98870.69
2022-11-24T09:24:58.955Z,98873.63
2022-11-24T09:27:30.636Z,98879.84
2022-11-24T09:30:02.737Z,98877.91
2022-11-24T09:32:34.296Z,98874.13
2022-11-24T09:35:08.991Z,98871.69
2022-11-24T09:37:40.447Z,98875.28
2022-11-24T09:40:14.315Z,98876.94
2022-11-24T09:43:20.012Z,98874.47
2022-11-24T09:46:18.976Z,98880.16
2022-11-24T09:48:56.672Z,98880.53
2022-11-24T09:51:32.081Z,98879.38
2022-11-24T09:54:17.065Z,98881.09
2022-11-24T09:56:51.328Z,98889.31
2022-11-24T09:59:25.141Z,98890.66
2022-11-24T10:01:57.075Z,98883.94
2022-11-24T10:04:41.720Z,98885.41
2022-11-24T10:07:31.055Z,98874.59
2022-11-24T10:10:24.292Z,98884.28
2022-11-24T10:13:35.244Z,98887.41
2022-11-24T10:16:26.736Z,98884.47
2022-11-24T10:19:14.447Z,98881.84
2022-11-24T10:22:16.026Z,98880.41
2022-11-24T10:25:13.467Z,98878.78
2022-11-24T10:27:54.968Z,98881.94
2022-11-24T10:30:27.078Z,98880.47
2022-11-24T10:33:04.980Z,98875.91
2022-11-24T10:35:38.861Z,98878.69
2022-11-24T10:38:31.020Z,98881.50
2022-11-24T10:41:10.277Z,98878.69
2022-11-24T10:43:43.051Z,98880.53
2022-11-24T10:46:16.796Z,98883.66
2022-11-24T10:48:53.044Z,98877.78
2022-11-24T10:51:30.686Z,98872.03
2022-11-24T10:54:12.605Z,98870.72
2022-11-24T10:56:46.373Z,98867.94
2022-11-24T10:59:22.528Z,98872.28
2022-11-24T11:01:55.063Z,98870.81
2022-11-24T11:04:34.891Z,98865.38
2022-11-24T11:07:18.860Z,98870.94
2022-11-24T11:09:51.369Z,98865.38
2022-11-24T11:12:43.287Z,98871.25
2022-11-24T11:15:26.502Z,98870.63
2022-11-24T11:18:01.834Z,98871.13
2022-11-24T11:20:34.624Z,98873.94
2022-11-24T11:23:22.450Z,98878.03
2022-11-24T11:26:19.401Z,98868.06
2022-11-24T11:35:12.508Z,98875.94
2022-11-24T11:37:45.260Z,98872.16
2022-11-24T11:40:21.410Z,98883.81
2022-11-24T11:43:02.908Z,98876.28
2022-11-24T11:45:37.046Z,98891.06
2022-11-24T11:48:26.954Z,98886.81
2022-11-24T11:51:35.143Z,98886.84
2022-11-24T11:54:15.713Z,98885.34
2022-11-24T11:56:51.910Z,98892.41
2022-11-24T11:59:32.378Z,98878.44
2022-11-24T12:02:30.839Z,98885.50
2022-11-24T12:05:22.498Z,98891.09
2022-11-24T12:08:21.028Z,98891.78
2022-11-24T12:11:14.448Z,98893.91
2022-11-24T12:14:14.316Z,98898.50
2022-11-24T12:17:21.274Z,98892.59
2022-11-24T12:19:56.162Z,98890.47
2022-11-24T12:22:53.810Z,98892.78
2022-11-24T12:25:34.646Z,98884.56
2022-11-24T12:28:38.027Z,98887.84
2022-11-24T12:31:45.477Z,98891.13
2022-11-24T12:34:44.594Z,98896.38
2022-11-24T12:37:43.522Z,98884.69
2022-11-24T12:40:33.929Z,98889.13
2022-11-24T12:43:32.580Z,98891.75
2022-11-24T12:46:34.865Z,98890.63
2022-11-24T12:49:41.057Z,98892.59
2022-11-24T12:52:33.760Z,98891.28
2022-11-24T12:55:12.769Z,98893.91
2022-11-24T12:57:59.353Z,98891.94
2022-11-24T13:00:46.950Z,98891.44
2022-11-24T13:03:33.018Z,98892.94
2022-11-24T13:06:35.459Z,98900.53
2022-11-24T13:09:09.409Z,98891.28
2022-11-24T13:11:45.073Z,98884.06
2022-11-24T13:14:31.796Z,98892.94
2022-11-24T13:17:31.011Z,98895.38
2022-11-24T13:20:20.891Z,98895.22
2022-11-24T13:22:58.605Z,98897.53
2022-11-24T13:25:32.724Z,98900.66
2022-11-24T13:28:06.821Z,98894.41
2022-11-24T13:30:41.075Z,98902.31
2022-11-24T13:33:16.630Z,98903.94
2022-11-24T13:36:04.285Z,98901.78
2022-11-24T13:38:45.021Z,98896.53
2022-11-24T13:41:31.613Z,98900.66
2022-11-24T13:44:15.220Z,98904.59
2022-11-24T13:47:38.645Z,98906.06
2022-11-24T13:50:24.786Z,98911.81
2022-11-24T13:53:08.421Z,98905.56
2022-11-24T13:55:41.596Z,98910.50
2022-11-24T13:58:13.224Z,98909.84
2022-11-24T14:01:08.784Z,98914.13
2022-11-24T14:04:28.133Z,98913.78
2022-11-24T14:06:49.383Z,98911.34
2022-11-24T14:09:24.211Z,98918.88
2022-11-24T14:12:07.981Z,98922.34
2022-11-24T14:14:42.192Z,98923.16
2022-11-24T14:17:14.619Z,98920.38
2022-11-24T14:19:49.187Z,98930.72
2022-11-24T14:22:43.407Z,98926.28
2022-11-24T14:25:31.398Z,98921.16
2022-11-24T14:28:34.824Z,98924.63
2022-11-24T14:31:08.802Z,98928.28
2022-11-24T14:33:40.467Z,98932.72
2022-11-24T14:36:16.819Z,98935.63
2022-11-24T14:38:48.563Z,98937.75
2022-11-24T14:41:28.375Z,98945.00
2022-11-24T14:44:08.988Z,98939.75
2022-11-24T14:46:40.959Z,98943.38
2022-11-24T14:49:23.320Z,98945.69
2022-11-24T14:52:02.280Z,98946.66
2022-11-24T14:54:35.851Z,98951.44
2022-11-24T14:57:24.019Z,98953.59
2022-11-24T15:00:08.151Z,98954.56
2022-11-24T15:02:48.593Z,98962.47
2022-11-24T15:05:22.906Z,98963.47
2022-11-24T15:08:02.654Z,98961.19
2022-11-24T15:10:38.669Z,98962.31
2022-11-24T15:13:20.636Z,98969.59
2022-11-24T15:16:02.135Z,98966.44
2022-11-24T15:18:42.395Z,98968.44
2022-11-24T15:21:19.137Z,98965.31
2022-11-24T15:24:17.689Z,98970.72
2022-11-24T15:26:49.370Z,98974.69
2022-11-24T15:29:21.354Z,98980.09
2022-11-24T15:31:53.265Z,98982.09
2022-11-24T15:34:25.146Z,98982.09
2022-11-24T15:36:56.810Z,98983.25
2022-11-24T15:39:28.557Z,98987.88
2022-11-24T15:42:00.609Z,98987.34
2022-11-24T15:44:33.252Z,98991.94
2022-11-24T15:47:05.208Z,98994.94
2022-11-24T15:49:37.102Z,98994.25
2022-11-24T15:52:08.757Z,99000.53
2022-11-24T15:54:40.487Z,99000.69
2022-11-24T15:57:12.243Z,99008.59
2022-11-24T15:59:44.132Z,99011.22
2022-11-24T16:02:15.880Z,99008.91
2022-11-24T16:04:48.500Z,99010.69
2022-11-24T16:07:20.197Z,99016.16
2022-11-24T16:09:54.112Z,99020.59
2022-11-24T16:12:25.684Z,99015.47
2022-11-24T16:14:57.405Z,99021.56
2022-11-24T16:17:29.041Z,99026.84
2022-11-24T16:20:01.123Z,99031.28
2022-11-24T16:22:33.030Z,99034.88
2022-11-24T16:25:05.441Z,99033.22
2022-11-24T16:27:37.127Z,99035.03
2022-11-24T16:30:12.317Z,99037.50
2022-11-24T16:32:44.018Z,99035.84
2022-11-24T16:35:16.539Z,99036.69
2022-11-24T16:37:48.977Z,99047.06
2022-11-24T16:40:20.632Z,99043.59
2022-11-24T16:42:53.055Z,99047.06
2022-11-24T16:45:24.842Z,99047.88
2022-11-24T16:47:56.484Z,99061.72
2022-11-24T16:50:28.308Z,99063.53
2022-11-24T16:53:00.164Z,99066.16
2022-11-24T16:55:34.409Z,99065.97
2022-11-24T16:58:06.076Z,99068.09
2022-11-24T17:00:37.788Z,99068.09
2022-11-24T17:03:12.089Z,99074.50
2022-11-24T17:05:43.814Z,99079.91
2022-11-24T17:08:15.472Z,99081.72
2022-11-24T17:10:47.190Z,99075.63
2022-11-24T17:13:18.925Z,99079.25
2022-11-24T17:15:54.186Z,99080.22
2022-11-24T17:18:27.516Z,99082.84
2022-11-24T17:21:02.102Z,99089.09
2022-11-24T17:23:38.069Z,99079.41
2022-11-24T17:26:17.403Z,99089.09
2022-11-24T17:28:49.095Z,99092.41
2022-11-24T17:31:27.352Z,99094.88
2022-11-24T17:34:00.415Z,99091.31
2022-11-24T17:36:33.764Z,99095.03
2022-11-24T17:39:07.186Z,99099.31
2022-11-24T17:41:39.087Z,99098.66
2022-11-24T17:44:12.726Z,99099.63
2022-11-24T17:46:44.912Z,99098.66
2022-11-24T17:49:16.612Z,99108.53
2022-11-24T17:51:50.588Z,99110.34
2022-11-24T17:54:45.517Z,99117.41
2022-11-24T17:57:13.965Z,99119.06
2022-11-24T17:59:48.059Z,99109.81
2022-11-24T18:02:20.177Z,99108.81
2022-11-24T18:04:51.918Z,99116.56
2022-11-24T18:07:23.641Z,99121.97
2022-11-24T18:09:55.274Z,99115.91
2022-11-24T18:12:26.903Z,99125.94
2022-11-24T18:14:58.556Z,99134.44
2022-11-24T18:17:30.232Z,99134.59
2022-11-24T18:20:01.836Z,99139.53
2022-11-24T18:23:04.013Z,99138.56
2022-11-24T18:25:26.358Z,99135.94
2022-11-24T18:27:58.475Z,99150.06
2022-11-24T18:30:30.404Z,99148.44
2022-11-24T18:33:02.154Z,99155.50
2022-11-24T18:35:33.785Z,99148.25
2022-11-24T18:38:06.498Z,99151.22
2022-11-24T18:40:39.856Z,99157.44
2022-11-24T18:43:11.515Z,99147.59
2022-11-24T18:45:43.232Z,99153.50
2022-11-24T18:48:15.530Z,99153.38
2022-11-24T18:50:57.158Z,99155.16
2022-11-24T18:53:29.504Z,99155.16
2022-11-24T18:56:03.774Z,99150.38
2022-11-24T18:58:35.975Z,99148.72
2022-11-24T19:01:11.949Z,99152.34
2022-11-24T19:03:49.718Z,99148.88
2022-11-24T19:06:32.589Z,99160.41
2022-11-24T19:09:08.796Z,99159.25
2022-11-24T19:11:42.958Z,99170.69
2022-11-24T19:14:19.325Z,99173.09
2022-11-24T19:16:51.275Z,99168.00
2022-11-24T19:19:23.046Z,99167.00
2022-11-24T19:21:55.196Z,99170.94
2022-11-24T19:24:26.945Z,99168.09
2022-11-24T19:26:58.619Z,99168.09
2022-11-24T19:29:30.332Z,99175.16
2022-11-24T19:32:02.185Z,99174.19
2022-11-24T19:34:34.150Z,99177.66
2022-11-24T19:37:05.959Z,99177.94
2022-11-24T19:39:37.613Z,99186.00
2022-11-24T19:42:09.488Z,99190.72
2022-11-24T19:44:43.842Z,99196.81
2022-11-24T19:47:15.490Z,99200.59
2022-11-24T19:49:47.440Z,99205.50
2022-11-24T19:52:19.040Z,99207.72
2022-11-24T19:54:54.010Z,99209.53
2022-11-24T19:57:26.044Z,99206.75
2022-11-24T19:59:58.075Z,99204.75
2022-11-24T20:02:35.853Z,99204.38
2022-11-24T20:05:15.248Z,99205.81
2022-11-24T20:07:50.342Z,99216.47
2022-11-24T20:10:22.033Z,99221.22
2022-11-24T20:12:55.800Z,99212.00
2022-11-24T20:15:28.951Z,99223.47
2022-11-24T20:18:00.568Z,99226.69
2022-11-24T20:20:33.324Z,99225.31
2022-11-24T20:23:06.059Z,99226.75
2022-11-24T20:25:38.408Z,99235.78
2022-11-24T20:28:10.068Z,99233.59
2022-11-24T20:30:41.801Z,99230.56
2022-11-24T20:33:13.427Z,99243.31
2022-11-24T20:35:45.071Z,99240.31
2022-11-24T20:38:16.986Z,99242.44
2022-11-24T20:40:48.632Z,99244.50
2022-11-24T20:43:20.411Z,99245.91
2022-11-24T20:45:52.137Z,99243.47
2022-11-24T20:48:23.824Z,99250.66
2022-11-24T20:50:55.521Z,99246.50
2022-11-24T20:53:29.190Z,99249.59
2022-11-24T20:56:06.541Z,99259.56
2022-11-24T20:58:38.678Z,99253.47
2022-11-24T21:01:16.712Z,99263.97
2022-11-24T21:03:53.785Z,99265.91
2022-11-24T21:06:28.724Z,99266.06
2022-11-24T21:09:03.667Z,99269.38
2022-11-24T21:11:36.881Z,99273.34
2022-11-24T21:14:08.767Z,99269.63
2022-11-24T21:16:42.091Z,99269.31
2022-11-24T21:19:17.100Z,99269.84
2022-11-24T21:21:48.989Z,99268.59
2022-11-24T21:24:21.796Z,99268.97
2022-11-24T21:26:53.539Z,99271.31
2022-11-24T21:29:25.672Z,99272.66
2022-11-24T21:31:57.320Z,99284.69
2022-11-24T21:34:29.466Z,99288.97
2022-11-24T21:37:01.131Z,99285.34
2022-11-24T21:39:32.810Z,99288.66
2022-11-24T21:42:04.752Z,99285.88
2022-11-24T21:44:37.121Z,99286.41
2022-11-24T21:47:08.900Z,99278.53
2022-11-24T21:49:40.502Z,99288.34
2022-11-24T21:52:12.169Z,99293.19
2022-11-24T21:54:43.722Z,99287.47
2022-11-24T21:57:15.427Z,99294.25
2022-11-24T21:59:47.217Z,99289.50
2022-11-24T22:02:18.883Z,99302.53
2022-11-24T22:04:50.506Z,99304.19
2022-11-24T22:07:22.302Z,99303.09
2022-11-24T22:09:53.912Z,99304.06
2022-11-24T22:12:25.541Z,99299.91
2022-11-24T22:14:57.201Z,99301.47
2022-11-24T22:17:30.967Z,99304.53
2022-11-24T22:20:02.792Z,99304.69
2022-11-24T22:22:34.425Z,99306.16
2022-11-24T22:25:06.457Z,99308.50
2022-11-24T22:27:38.133Z,99305.50
2022-11-24T22:30:10.603Z,99316.28
2022-11-24T22:32:42.336Z,99317.13
2022-11-24T22:35:14.192Z,99307.31
2022-11-24T22:37:45.851Z,99309.63
2022-11-24T22:40:17.548Z,99318.19
2022-11-24T22:42:49.186Z,99317.22
2022-11-24T22:45:20.737Z,99315.69
2022-11-24T22:47:56.541Z,99308.97
2022-11-24T22:50:28.144Z,99319.28
2022-11-24T22:53:00.004Z,99314.88
2022-11-24T22:55:31.565Z,99320.44
2022-11-24T22:58:03.210Z,99323.06
2022-11-24T23:00:34.725Z,99327.34
2022-11-24T23:03:06.530Z,99331.09
2022-11-24T23:05:38.143Z,99325.69
2022-11-24T23:08:09.852Z,99338.50
2022-11-24T23:10:41.444Z,99326.22
2022-11-24T23:13:13.029Z,99317.22
2022-11-24T23:15:44.586Z,99332.16
2022-11-24T23:18:16.203Z,99334.63
2022-11-24T23:20:47.874Z,99334.09
2022-11-24T23:23:19.539Z,99329.53
2022-11-24T23:25:51.127Z,99329.00
2022-11-24T23:28:22.791Z,99335.50
2022-11-24T23:30:54.426Z,99338.28
2022-11-24T23:33:26.158Z,99328.47
2022-11-24T23:36:09.504Z,99337.84
2022-11-24T23:38:42.396Z,99342.16
2022-11-24T23:41:22.044Z,99341.97
2022-11-24T23:43:53.677Z,99335.88
2022-11-24T23:46:26.905Z,99336.47
2022-11-24T23:48:59.021Z,99336.34
2022-11-24T23:51:32.811Z,99337.03
2022-11-24T23:54:08.840Z,99338.50
2022-11-24T23:56:40.411Z,99342.94
2022-11-24T23:59:12.403Z,99344.78
